createdAt,value
2023-05-14T00:08:14.936Z,100
2023-05-14T00:18:14.933Z,99.4
2023-05-14T00:23:14.906Z,99.2
2023-05-14T00:33:14.912Z,98.4
2023-05-14T00:43:14.899Z,98.5
2023-05-14T01:03:14.964Z,98.4
2023-05-14T01:18:14.874Z,98.3
2023-05-14T01:33:14.898Z,98.4
2023-05-14T01:43:14.871Z,98.3
2023-05-14T01:53:14.830Z,98.2
2023-05-14T01:58:14.817Z,98.2
2023-05-14T02:03:14.803Z,98.1
2023-05-14T02:13:14.805Z,97.7
2023-05-14T02:18:14.789Z,97.9
2023-05-14T02:23:14.802Z,98
2023-05-14T02:28:14.784Z,98
2023-05-14T02:33:14.879Z,98.1
2023-05-14T02:48:14.783Z,98.1
2023-05-14T02:53:14.794Z,98.3
2023-05-14T02:58:14.753Z,98.1
2023-05-14T03:03:14.774Z,98.2
2023-05-14T03:08:14.755Z,98.5
2023-05-14T03:13:14.745Z,98.6
2023-05-14T03:18:14.744Z,98.8
2023-05-14T03:23:14.736Z,99.1
2023-05-14T03:28:14.738Z,99
2023-05-14T03:33:14.744Z,99.2
2023-05-14T03:38:14.732Z,99.2
2023-05-14T03:43:14.724Z,99.4
2023-05-14T03:48:14.752Z,99.2
2023-05-14T03:53:14.747Z,99.1
2023-05-14T03:58:14.738Z,99.1
2023-05-14T04:03:14.744Z,99.2
2023-05-14T04:08:14.706Z,99.4
2023-05-14T04:13:14.692Z,99.2
2023-05-14T04:18:14.700Z,99.4
2023-05-14T04:23:14.675Z,99.6
2023-05-14T04:28:14.688Z,99.6
2023-05-14T04:33:14.660Z,99.9
2023-05-14T04:38:14.657Z,99.8
2023-05-14T04:43:14.670Z,99.6
2023-05-14T04:48:14.665Z,99.2
2023-05-14T04:53:14.651Z,99
2023-05-14T04:58:14.625Z,99
2023-05-14T05:03:14.710Z,98.8
2023-05-14T05:08:14.643Z,99
2023-05-14T05:13:14.619Z,98.7
2023-05-14T05:18:14.623Z,98.6
2023-05-14T05:23:14.620Z,98.2
2023-05-14T05:28:14.615Z,97.8
2023-05-14T05:33:14.588Z,96.8
2023-05-14T05:38:14.597Z,95.9
2023-05-14T05:43:14.596Z,95.1
2023-05-14T05:48:14.614Z,94.5
2023-05-14T05:53:14.588Z,93.4
2023-05-14T05:58:14.586Z,92.3
2023-05-14T06:03:14.633Z,91.6
2023-05-14T06:08:14.591Z,90.3
2023-05-14T06:13:14.566Z,89.3
2023-05-14T06:18:14.554Z,88.5
2023-05-14T06:23:14.555Z,88.1
2023-05-14T06:28:14.539Z,87.3
2023-05-14T06:33:14.537Z,87
2023-05-14T06:38:14.553Z,86.6
2023-05-14T06:43:14.544Z,86.5
2023-05-14T06:48:14.580Z,85.9
2023-05-14T06:53:14.511Z,85.5
2023-05-14T06:58:14.511Z,85
2023-05-14T07:03:14.506Z,84.3
2023-05-14T07:08:14.496Z,84.2
2023-05-14T07:13:14.499Z,82.7
2023-05-14T07:18:14.512Z,81.9
2023-05-14T07:23:14.498Z,81.4
2023-05-14T07:28:14.484Z,83.2
2023-05-14T07:33:14.490Z,84.5
2023-05-14T07:38:14.486Z,84.2
2023-05-14T07:43:14.508Z,84.1
2023-05-14T07:48:14.503Z,84.9
2023-05-14T07:53:14.445Z,85.3
2023-05-14T07:58:14.438Z,85.3
2023-05-14T08:03:14.539Z,85.6
2023-05-14T08:08:14.429Z,85.2
2023-05-14T08:13:14.442Z,85.5
2023-05-14T08:18:14.449Z,84.8
2023-05-14T08:23:14.421Z,84.1
2023-05-14T08:28:14.444Z,84.1
2023-05-14T08:33:14.405Z,82.9
2023-05-14T08:38:14.415Z,82.9
2023-05-14T08:43:14.430Z,83.6
2023-05-14T08:48:14.419Z,83.7
2023-05-14T08:53:14.395Z,83.8
2023-05-14T08:58:14.382Z,83.7
2023-05-14T09:03:14.414Z,83.6
2023-05-14T09:08:14.365Z,83.3
2023-05-14T09:13:14.360Z,83
2023-05-14T09:18:14.357Z,83.4
2023-05-14T09:23:14.361Z,84.4
2023-05-14T09:28:14.351Z,83.4
2023-05-14T09:33:14.332Z,82.4
2023-05-14T09:38:14.325Z,80.6
2023-05-14T09:43:14.326Z,79.6
2023-05-14T09:48:14.384Z,78.8
2023-05-14T10:23:14.270Z,75.6
2023-05-14T10:28:14.257Z,76.6
2023-05-14T10:33:14.324Z,76.8
2023-05-14T10:43:14.256Z,75.5
2023-05-14T10:58:14.225Z,69.2
2023-05-14T11:08:14.243Z,66.4
2023-05-14T11:13:14.228Z,66.6
2023-05-14T11:23:14.253Z,63.5
2023-05-14T11:33:14.223Z,63.9
2023-05-14T11:38:14.194Z,65.2
2023-05-14T11:53:14.175Z,65.4
2023-05-14T12:13:14.131Z,63.9
2023-05-14T12:18:23.755Z,63.6
2023-05-14T12:43:14.103Z,65.2
2023-05-14T12:48:14.127Z,63.6
2023-05-14T12:53:14.087Z,64.2
2023-05-14T12:58:14.078Z,62.3
2023-05-14T13:03:14.081Z,61.9
2023-05-14T13:08:14.069Z,60.7
2023-05-14T13:13:14.070Z,60.4
2023-05-14T13:18:14.070Z,62.1
2023-05-14T13:23:14.072Z,60.4
2023-05-14T13:28:14.044Z,60.6
2023-05-14T13:33:14.141Z,58.3
2023-05-14T13:38:14.024Z,58.2
2023-05-14T13:43:14.030Z,58.3
2023-05-14T13:48:14.093Z,58.8
2023-05-14T13:53:14.036Z,58.2
2023-05-14T13:58:14.029Z,57.5
2023-05-14T14:03:13.996Z,56.4
2023-05-14T14:13:13.987Z,56.4
2023-05-14T14:18:13.973Z,58.3
2023-05-14T14:23:13.988Z,59.6
2023-05-14T14:28:14.016Z,65.7
2023-05-14T14:33:13.980Z,86.6
2023-05-14T14:38:13.961Z,98.4
2023-05-14T14:48:13.949Z,100
2023-05-14T14:53:13.958Z,100
2023-05-14T15:08:13.920Z,100
2023-05-14T15:23:13.902Z,100
2023-05-14T15:38:13.879Z,100
2023-05-14T15:43:13.882Z,100
2023-05-14T15:48:13.892Z,100
2023-05-14T15:53:13.861Z,100
2023-05-14T16:28:13.825Z,99.3
2023-05-14T16:33:13.832Z,99.5
2023-05-14T16:38:14.023Z,99
2023-05-14T16:58:13.784Z,95.4
2023-05-14T17:23:13.751Z,93.7
2023-05-14T17:28:13.751Z,92.9
2023-05-14T17:33:13.747Z,94.3
2023-05-14T17:38:13.749Z,95.1
2023-05-14T17:43:13.751Z,94
2023-05-14T17:48:13.797Z,95.5
2023-05-14T17:53:13.735Z,95
2023-05-14T17:58:13.743Z,95.7
2023-05-14T18:03:13.827Z,95.9
2023-05-14T18:08:13.735Z,96.1
2023-05-14T18:13:13.711Z,96.3
2023-05-14T18:18:13.747Z,97.5
2023-05-14T18:23:13.708Z,97.4
2023-05-14T18:28:13.685Z,97.7
2023-05-14T18:33:13.730Z,96.9
2023-05-14T18:38:13.757Z,96.3
2023-05-14T18:43:13.746Z,96.1
2023-05-14T18:48:13.677Z,96.6
2023-05-14T18:53:13.723Z,97.1
2023-05-14T18:58:13.663Z,97.4
2023-05-14T19:03:13.765Z,98.2
2023-05-14T19:08:13.656Z,98.2
2023-05-14T19:13:13.655Z,98.9
2023-05-14T19:18:13.638Z,99.4
2023-05-14T19:23:13.656Z,99.4
2023-05-14T19:28:13.636Z,99.2
2023-05-14T19:33:13.672Z,99.1
2023-05-14T19:38:13.613Z,99.3
2023-05-14T19:43:13.685Z,100
2023-05-14T19:48:13.627Z,100
2023-05-14T19:53:13.583Z,100
2023-05-14T19:58:13.606Z,100
2023-05-14T20:03:13.745Z,100
2023-05-14T20:08:13.635Z,100
2023-05-14T20:13:13.599Z,100
2023-05-14T20:18:13.595Z,100
2023-05-14T20:23:13.583Z,100
2023-05-14T20:28:13.601Z,100
2023-05-14T20:33:13.623Z,100
2023-05-14T20:38:13.560Z,100
2023-05-14T20:43:13.571Z,100
2023-05-14T20:48:13.587Z,100
2023-05-14T20:53:13.546Z,100
2023-05-14T20:58:13.534Z,100
2023-05-14T21:03:13.595Z,100
2023-05-14T21:08:13.547Z,100
2023-05-14T21:13:13.549Z,100
2023-05-14T21:18:13.525Z,100
2023-05-14T21:23:13.506Z,100
2023-05-14T21:28:13.538Z,100
2023-05-14T21:33:13.524Z,100
2023-05-14T21:38:14.836Z,100
2023-05-14T21:43:13.508Z,100
2023-05-14T21:48:13.599Z,100
2023-05-14T21:53:13.492Z,100
2023-05-14T21:58:13.505Z,100
2023-05-14T22:03:13.528Z,100
2023-05-14T22:08:13.479Z,100
2023-05-14T22:13:13.466Z,100
2023-05-14T22:18:13.598Z,100
2023-05-14T22:23:13.479Z,100
2023-05-14T22:28:13.480Z,100
2023-05-14T22:33:13.477Z,100
2023-05-14T22:38:13.430Z,100
2023-05-14T22:43:13.455Z,100
2023-05-14T22:48:13.426Z,100
2023-05-14T22:53:13.455Z,100
2023-05-14T22:58:13.423Z,100
2023-05-14T23:03:13.432Z,100
2023-05-14T23:08:13.449Z,100
2023-05-14T23:13:13.430Z,100
2023-05-14T23:18:13.440Z,100
2023-05-14T23:23:13.400Z,100
2023-05-14T23:28:13.389Z,100
2023-05-14T23:33:13.386Z,100
2023-05-14T23:38:13.364Z,100
2023-05-14T23:43:13.427Z,100
2023-05-14T23:48:13.382Z,100
2023-05-14T23:53:13.356Z,100
2023-05-14T23:58:13.377Z,100
